Etusivu
METAR-TAF:

METAR-TAF

Lentoasemat :

Waseca Municipal Airport

Waseca, Minnesota, Yhdysvallat

Leveyspiiri: 44-04-24N, Pituuspiiri: 093-33-11W, korkeus merenpinnasta: 343 m

Tämänhetkinen sää

Tämä raportti tehtiin 36 minuuttia sitten, kello 04.39 UTC
Tuuli 8 kn lännestä
Lämpötila -4°C
Kosteus 93%
Ilmanpaine 1015 hPa
Näkyvyys: 16.1 km
Pilvistä 900 ft:n korkeudessa

METAR: KACQ 260439Z AUTO 27008KT 10SM OVC009 M04/M05 A2998 RMK AO2

Aika: 23:15 (05:15 UTC)


TAF: puuttuu

Säähavainnot ja -ennusteet yli 4000 lentoasemalta (METAR- ja TAF-raportit).

Käytössä olevat sääasemat on merkitty karttaan keltaisilla ja punaisilla pisteillä.

Aseta hiiri pisteen päälle nähdäksesi sääaseman nimen.

Klikkaa sitten nähdäksesi säähavainnot ja -ennusteet.

Kartan vaihtaminen: klikkaa mustalla rastilla varustettuja vihreitä pisteitä, niin voit zoomata sisään; viivalla varustettua vihreää pistettä, niin voit zoomata ulos tai vihreitä nuolia, niin pääset viereisille kartoille.


METAR-TAF: